sensor_id;sensor_type;location;lat;lon;timestamp;temperature;humidity
27567;DHT22;15006;48.584;9.186;2024-02-15T00:01:42;7.60;95.30
27567;DHT22;15006;48.584;9.186;2024-02-15T00:04:08;7.60;95.20
27567;DHT22;15006;48.584;9.186;2024-02-15T00:06:36;7.60;95.20
27567;DHT22;15006;48.584;9.186;2024-02-15T00:09:02;7.60;95.00
27567;DHT22;15006;48.584;9.186;2024-02-15T00:11:28;7.60;94.90
27567;DHT22;15006;48.584;9.186;2024-02-15T00:13:54;7.60;95.00
27567;DHT22;15006;48.584;9.186;2024-02-15T00:16:22;7.60;95.00
27567;DHT22;15006;48.584;9.186;2024-02-15T00:18:48;7.60;95.10
27567;DHT22;15006;48.584;9.186;2024-02-15T00:21:15;7.60;95.00
27567;DHT22;15006;48.584;9.186;2024-02-15T00:23:41;7.60;94.90
27567;DHT22;15006;48.584;9.186;2024-02-15T00:26:08;7.60;94.80
27567;DHT22;15006;48.584;9.186;2024-02-15T00:28:35;7.60;94.80
27567;DHT22;15006;48.584;9.186;2024-02-15T00:31:01;7.60;94.70
27567;DHT22;15006;48.584;9.186;2024-02-15T00:33:28;7.60;94.60
27567;DHT22;15006;48.584;9.186;2024-02-15T00:35:54;7.60;94.60
27567;DHT22;15006;48.584;9.186;2024-02-15T00:38:20;7.60;94.60
27567;DHT22;15006;48.584;9.186;2024-02-15T00:40:46;7.60;94.50
27567;DHT22;15006;48.584;9.186;2024-02-15T00:43:12;7.60;94.60
27567;DHT22;15006;48.584;9.186;2024-02-15T00:45:39;7.60;94.60
27567;DHT22;15006;48.584;9.186;2024-02-15T00:48:06;7.70;94.60
27567;DHT22;15006;48.584;9.186;2024-02-15T00:50:32;7.70;94.70
27567;DHT22;15006;48.584;9.186;2024-02-15T00:52:58;7.70;94.60
27567;DHT22;15006;48.584;9.186;2024-02-15T00:55:24;7.70;94.50
27567;DHT22;15006;48.584;9.186;2024-02-15T00:57:50;7.60;94.60
27567;DHT22;15006;48.584;9.186;2024-02-15T01:00:16;7.60;94.70
27567;DHT22;15006;48.584;9.186;2024-02-15T01:02:42;7.60;94.50
27567;DHT22;15006;48.584;9.186;2024-02-15T01:05:08;7.60;94.10
27567;DHT22;15006;48.584;9.186;2024-02-15T01:07:35;7.50;94.10
27567;DHT22;15006;48.584;9.186;2024-02-15T01:10:01;7.50;94.00
27567;DHT22;15006;48.584;9.186;2024-02-15T01:12:29;7.50;94.00
27567;DHT22;15006;48.584;9.186;2024-02-15T01:14:55;7.40;93.80
27567;DHT22;15006;48.584;9.186;2024-02-15T01:17:22;7.30;93.80
27567;DHT22;15006;48.584;9.186;2024-02-15T01:19:47;7.20;93.90
27567;DHT22;15006;48.584;9.186;2024-02-15T01:22:13;7.20;94.00
27567;DHT22;15006;48.584;9.186;2024-02-15T01:24:39;7.10;94.00
27567;DHT22;15006;48.584;9.186;2024-02-15T01:27:06;7.00;94.10
27567;DHT22;15006;48.584;9.186;2024-02-15T01:29:33;7.00;94.20
27567;DHT22;15006;48.584;9.186;2024-02-15T01:31:58;6.90;94.20
27567;DHT22;15006;48.584;9.186;2024-02-15T01:34:25;6.80;94.20
27567;DHT22;15006;48.584;9.186;2024-02-15T01:36:51;6.70;94.10
27567;DHT22;15006;48.584;9.186;2024-02-15T01:39:16;6.70;93.80
27567;DHT22;15006;48.584;9.186;2024-02-15T01:41:49;6.60;93.50
27567;DHT22;15006;48.584;9.186;2024-02-15T01:44:21;6.50;93.30
27567;DHT22;15006;48.584;9.186;2024-02-15T01:46:50;6.40;93.70
27567;DHT22;15006;48.584;9.186;2024-02-15T01:49:21;6.30;93.80
27567;DHT22;15006;48.584;9.186;2024-02-15T01:51:50;6.20;94.10
27567;DHT22;15006;48.584;9.186;2024-02-15T01:54:18;6.10;94.40
27567;DHT22;15006;48.584;9.186;2024-02-15T01:56:45;6.00;94.60
27567;DHT22;15006;48.584;9.186;2024-02-15T01:59:13;6.00;94.90
27567;DHT22;15006;48.584;9.186;2024-02-15T02:01:41;5.90;94.90
27567;DHT22;15006;48.584;9.186;2024-02-15T02:04:08;5.80;94.90
27567;DHT22;15006;48.584;9.186;2024-02-15T02:06:36;5.70;94.60
27567;DHT22;15006;48.584;9.186;2024-02-15T02:09:03;5.60;94.50
27567;DHT22;15006;48.584;9.186;2024-02-15T02:11:29;5.60;94.50
27567;DHT22;15006;48.584;9.186;2024-02-15T02:13:56;5.40;94.40
27567;DHT22;15006;48.584;9.186;2024-02-15T02:16:26;5.40;94.30
27567;DHT22;15006;48.584;9.186;2024-02-15T02:18:54;5.20;94.20
27567;DHT22;15006;48.584;9.186;2024-02-15T02:21:21;5.10;94.20
27567;DHT22;15006;48.584;9.186;2024-02-15T02:23:52;5.10;94.10
27567;DHT22;15006;48.584;9.186;2024-02-15T02:26:21;4.90;94.00
27567;DHT22;15006;48.584;9.186;2024-02-15T02:28:48;4.90;93.90
27567;DHT22;15006;48.584;9.186;2024-02-15T02:31:15;4.70;94.10
27567;DHT22;15006;48.584;9.186;2024-02-15T02:33:48;4.60;94.40
27567;DHT22;15006;48.584;9.186;2024-02-15T02:36:19;4.50;94.70
27567;DHT22;15006;48.584;9.186;2024-02-15T02:38:46;4.40;95.00
27567;DHT22;15006;48.584;9.186;2024-02-15T02:41:16;4.30;95.20
27567;DHT22;15006;48.584;9.186;2024-02-15T02:43:42;4.20;95.30
27567;DHT22;15006;48.584;9.186;2024-02-15T02:46:12;4.10;95.30
27567;DHT22;15006;48.584;9.186;2024-02-15T02:48:39;4.10;95.30
27567;DHT22;15006;48.584;9.186;2024-02-15T02:51:06;4.00;95.40
27567;DHT22;15006;48.584;9.186;2024-02-15T02:53:33;3.90;95.30
27567;DHT22;15006;48.584;9.186;2024-02-15T02:55:59;3.80;95.20
27567;DHT22;15006;48.584;9.186;2024-02-15T02:58:25;3.70;95.00
27567;DHT22;15006;48.584;9.186;2024-02-15T03:00:51;3.70;95.10
27567;DHT22;15006;48.584;9.186;2024-02-15T03:03:18;3.60;95.30
27567;DHT22;15006;48.584;9.186;2024-02-15T03:05:49;3.60;95.50
27567;DHT22;15006;48.584;9.186;2024-02-15T03:08:15;3.50;95.50
27567;DHT22;15006;48.584;9.186;2024-02-15T03:10:43;3.40;95.30
27567;DHT22;15006;48.584;9.186;2024-02-15T03:13:09;3.40;95.20
27567;DHT22;15006;48.584;9.186;2024-02-15T03:15:35;3.20;95.10
27567;DHT22;15006;48.584;9.186;2024-02-15T03:18:02;3.20;95.20
27567;DHT22;15006;48.584;9.186;2024-02-15T03:20:37;3.10;95.20
27567;DHT22;15006;48.584;9.186;2024-02-15T03:23:03;3.10;95.40
27567;DHT22;15006;48.584;9.186;2024-02-15T03:25:30;3.00;95.70
27567;DHT22;15006;48.584;9.186;2024-02-15T03:27:57;2.90;95.90
27567;DHT22;15006;48.584;9.186;2024-02-15T03:30:25;2.90;96.10
27567;DHT22;15006;48.584;9.186;2024-02-15T03:32:55;2.80;96.10
27567;DHT22;15006;48.584;9.186;2024-02-15T03:35:23;2.70;96.20
27567;DHT22;15006;48.584;9.186;2024-02-15T03:37:51;2.70;96.40
27567;DHT22;15006;48.584;9.186;2024-02-15T03:40:18;2.70;96.60
27567;DHT22;15006;48.584;9.186;2024-02-15T03:42:45;2.60;96.70
27567;DHT22;15006;48.584;9.186;2024-02-15T03:45:12;2.60;96.70
27567;DHT22;15006;48.584;9.186;2024-02-15T03:47:38;2.60;96.70
27567;DHT22;15006;48.584;9.186;2024-02-15T03:50:06;2.50;96.80
27567;DHT22;15006;48.584;9.186;2024-02-15T03:52:37;2.50;96.80
27567;DHT22;15006;48.584;9.186;2024-02-15T03:55:04;2.40;96.70
27567;DHT22;15006;48.584;9.186;2024-02-15T03:57:31;2.40;96.70
27567;DHT22;15006;48.584;9.186;2024-02-15T03:59:59;2.30;96.90
27567;DHT22;15006;48.584;9.186;2024-02-15T04:02:26;2.30;97.00
27567;DHT22;15006;48.584;9.186;2024-02-15T04:04:56;2.30;97.30
27567;DHT22;15006;48.584;9.186;2024-02-15T04:07:23;2.30;97.80
27567;DHT22;15006;48.584;9.186;2024-02-15T04:09:53;2.20;98.30
27567;DHT22;15006;48.584;9.186;2024-02-15T04:12:19;2.20;98.90
27567;DHT22;15006;48.584;9.186;2024-02-15T04:14:45;2.20;99.60
27567;DHT22;15006;48.584;9.186;2024-02-15T04:17:15;2.20;99.90
27567;DHT22;15006;48.584;9.186;2024-02-15T04:19:47;2.30;99.90
27567;DHT22;15006;48.584;9.186;2024-02-15T04:22:15;2.30;99.90
27567;DHT22;15006;48.584;9.186;2024-02-15T04:24:42;2.40;99.90
27567;DHT22;15006;48.584;9.186;2024-02-15T04:27:10;2.40;99.90
27567;DHT22;15006;48.584;9.186;2024-02-15T04:29:46;2.60;99.90
27567;DHT22;15006;48.584;9.186;2024-02-15T04:32:12;2.70;99.90
27567;DHT22;15006;48.584;9.186;2024-02-15T04:34:42;2.90;99.90
27567;DHT22;15006;48.584;9.186;2024-02-15T04:37:08;3.00;99.90
27567;DHT22;15006;48.584;9.186;2024-02-15T04:39:38;3.10;99.90
27567;DHT22;15006;48.584;9.186;2024-02-15T04:42:04;3.30;99.90
27567;DHT22;15006;48.584;9.186;2024-02-15T04:44:33;3.40;99.90
27567;DHT22;15006;48.584;9.186;2024-02-15T04:47:01;3.50;99.90
27567;DHT22;15006;48.584;9.186;2024-02-15T04:49:30;3.60;99.90
27567;DHT22;15006;48.584;9.186;2024-02-15T04:51:56;3.70;99.90
27567;DHT22;15006;48.584;9.186;2024-02-15T04:54:27;3.80;99.90
27567;DHT22;15006;48.584;9.186;2024-02-15T04:56:53;3.90;99.90
27567;DHT22;15006;48.584;9.186;2024-02-15T04:59:20;3.90;99.90
27567;DHT22;15006;48.584;9.186;2024-02-15T05:01:47;3.90;99.90
27567;DHT22;15006;48.584;9.186;2024-02-15T05:04:15;4.00;99.90
27567;DHT22;15006;48.584;9.186;2024-02-15T05:06:41;4.00;99.90
27567;DHT22;15006;48.584;9.186;2024-02-15T05:09:07;4.00;99.90
27567;DHT22;15006;48.584;9.186;2024-02-15T05:11:36;4.00;99.90
27567;DHT22;15006;48.584;9.186;2024-02-15T05:14:03;4.10;99.90
27567;DHT22;15006;48.584;9.186;2024-02-15T05:16:35;4.10;99.90
27567;DHT22;15006;48.584;9.186;2024-02-15T05:19:04;4.10;99.90
27567;DHT22;15006;48.584;9.186;2024-02-15T05:21:31;4.20;99.90
27567;DHT22;15006;48.584;9.186;2024-02-15T05:23:57;4.20;99.90
27567;DHT22;15006;48.584;9.186;2024-02-15T05:26:23;4.20;99.90
27567;DHT22;15006;48.584;9.186;2024-02-15T05:28:49;4.20;99.90
27567;DHT22;15006;48.584;9.186;2024-02-15T05:31:20;4.20;99.90
27567;DHT22;15006;48.584;9.186;2024-02-15T05:33:47;4.30;99.90
27567;DHT22;15006;48.584;9.186;2024-02-15T05:36:14;4.20;99.90
27567;DHT22;15006;48.584;9.186;2024-02-15T05:38:41;4.20;99.90
27567;DHT22;15006;48.584;9.186;2024-02-15T05:41:09;4.20;99.90
27567;DHT22;15006;48.584;9.186;2024-02-15T05:43:36;4.20;99.90
27567;DHT22;15006;48.584;9.186;2024-02-15T05:46:07;4.10;99.90
27567;DHT22;15006;48.584;9.186;2024-02-15T05:48:37;4.10;99.90
27567;DHT22;15006;48.584;9.186;2024-02-15T05:51:03;4.00;99.50
27567;DHT22;15006;48.584;9.186;2024-02-15T05:53:30;3.90;99.50
27567;DHT22;15006;48.584;9.186;2024-02-15T05:55:58;3.90;99.30
27567;DHT22;15006;48.584;9.186;2024-02-15T05:58:24;3.80;99.40
27567;DHT22;15006;48.584;9.186;2024-02-15T06:00:50;3.70;99.40
27567;DHT22;15006;48.584;9.186;2024-02-15T06:03:17;3.60;99.30
27567;DHT22;15006;48.584;9.186;2024-02-15T06:05:43;3.60;99.40
27567;DHT22;15006;48.584;9.186;2024-02-15T06:08:11;3.50;99.30
27567;DHT22;15006;48.584;9.186;2024-02-15T06:10:40;3.40;99.30
27567;DHT22;15006;48.584;9.186;2024-02-15T06:13:07;3.40;99.40
27567;DHT22;15006;48.584;9.186;2024-02-15T06:15:35;3.30;99.60
27567;DHT22;15006;48.584;9.186;2024-02-15T06:18:02;3.20;99.80
27567;DHT22;15006;48.584;9.186;2024-02-15T06:20:34;3.20;99.90
27567;DHT22;15006;48.584;9.186;2024-02-15T06:23:01;3.20;99.90
27567;DHT22;15006;48.584;9.186;2024-02-15T06:25:33;3.10;99.90
27567;DHT22;15006;48.584;9.186;2024-02-15T06:28:00;3.10;99.90
27567;DHT22;15006;48.584;9.186;2024-02-15T06:30:39;3.10;99.90
27567;DHT22;15006;48.584;9.186;2024-02-15T06:33:24;3.00;99.90
27567;DHT22;15006;48.584;9.186;2024-02-15T06:36:08;3.00;99.90
27567;DHT22;15006;48.584;9.186;2024-02-15T06:38:53;3.00;99.90
27567;DHT22;15006;48.584;9.186;2024-02-15T06:41:37;2.90;99.90
27567;DHT22;15006;48.584;9.186;2024-02-15T06:44:03;2.90;99.90
27567;DHT22;15006;48.584;9.186;2024-02-15T06:46:29;2.90;99.90
27567;DHT22;15006;48.584;9.186;2024-02-15T06:48:55;2.90;99.90
27567;DHT22;15006;48.584;9.186;2024-02-15T06:51:23;2.90;99.90
27567;DHT22;15006;48.584;9.186;2024-02-15T06:53:50;2.80;99.90
27567;DHT22;15006;48.584;9.186;2024-02-15T06:56:17;2.90;99.90
27567;DHT22;15006;48.584;9.186;2024-02-15T06:58:46;2.80;99.90
27567;DHT22;15006;48.584;9.186;2024-02-15T07:01:14;2.90;99.90
27567;DHT22;15006;48.584;9.186;2024-02-15T07:03:42;2.90;99.90
27567;DHT22;15006;48.584;9.186;2024-02-15T07:06:11;2.90;99.90
27567;DHT22;15006;48.584;9.186;2024-02-15T07:08:39;2.90;99.90
27567;DHT22;15006;48.584;9.186;2024-02-15T07:11:09;3.00;99.90
27567;DHT22;15006;48.584;9.186;2024-02-15T07:13:35;3.00;99.90
27567;DHT22;15006;48.584;9.186;2024-02-15T07:16:06;3.00;99.90
27567;DHT22;15006;48.584;9.186;2024-02-15T07:18:35;3.10;99.90
27567;DHT22;15006;48.584;9.186;2024-02-15T07:21:01;3.20;99.90
27567;DHT22;15006;48.584;9.186;2024-02-15T07:23:29;3.30;99.90
27567;DHT22;15006;48.584;9.186;2024-02-15T07:25:55;3.40;99.90
27567;DHT22;15006;48.584;9.186;2024-02-15T07:28:21;3.50;99.90
27567;DHT22;15006;48.584;9.186;2024-02-15T07:30:47;3.60;99.90
27567;DHT22;15006;48.584;9.186;2024-02-15T07:33:16;3.70;99.90
27567;DHT22;15006;48.584;9.186;2024-02-15T07:35:44;3.80;99.90
27567;DHT22;15006;48.584;9.186;2024-02-15T07:38:10;4.00;99.90
27567;DHT22;15006;48.584;9.186;2024-02-15T07:40:37;4.20;99.90
27567;DHT22;15006;48.584;9.186;2024-02-15T07:43:05;4.30;99.90
27567;DHT22;15006;48.584;9.186;2024-02-15T07:45:31;4.50;99.90
27567;DHT22;15006;48.584;9.186;2024-02-15T07:48:01;4.60;99.90
27567;DHT22;15006;48.584;9.186;2024-02-15T07:50:30;4.80;99.90
27567;DHT22;15006;48.584;9.186;2024-02-15T07:52:56;5.00;99.90
27567;DHT22;15006;48.584;9.186;2024-02-15T07:55:23;5.20;99.90
27567;DHT22;15006;48.584;9.186;2024-02-15T07:57:50;5.40;99.90
27567;DHT22;15006;48.584;9.186;2024-02-15T08:00:17;5.50;99.90
27567;DHT22;15006;48.584;9.186;2024-02-15T08:02:43;5.70;99.90
27567;DHT22;15006;48.584;9.186;2024-02-15T08:05:10;5.90;99.90
27567;DHT22;15006;48.584;9.186;2024-02-15T08:07:46;6.00;99.90
27567;DHT22;15006;48.584;9.186;2024-02-15T08:10:15;6.20;99.90
27567;DHT22;15006;48.584;9.186;2024-02-15T08:12:43;6.30;99.90
27567;DHT22;15006;48.584;9.186;2024-02-15T08:15:10;6.50;99.90
27567;DHT22;15006;48.584;9.186;2024-02-15T08:17:44;6.60;99.90
27567;DHT22;15006;48.584;9.186;2024-02-15T08:20:14;6.80;99.90
27567;DHT22;15006;48.584;9.186;2024-02-15T08:22:41;6.90;99.90
27567;DHT22;15006;48.584;9.186;2024-02-15T08:25:10;7.00;99.90
27567;DHT22;15006;48.584;9.186;2024-02-15T08:27:38;7.20;99.90
27567;DHT22;15006;48.584;9.186;2024-02-15T08:30:12;7.30;99.90
27567;DHT22;15006;48.584;9.186;2024-02-15T08:32:39;7.40;99.90
27567;DHT22;15006;48.584;9.186;2024-02-15T08:35:11;7.50;99.90
27567;DHT22;15006;48.584;9.186;2024-02-15T08:37:38;7.60;99.50
27567;DHT22;15006;48.584;9.186;2024-02-15T08:40:05;7.70;97.10
27567;DHT22;15006;48.584;9.186;2024-02-15T08:42:43;7.80;99.10
27567;DHT22;15006;48.584;9.186;2024-02-15T08:45:10;7.80;97.50
27567;DHT22;15006;48.584;9.186;2024-02-15T08:47:37;7.80;97.40
27567;DHT22;15006;48.584;9.186;2024-02-15T08:50:08;7.90;97.20
27567;DHT22;15006;48.584;9.186;2024-02-15T08:52:38;7.90;96.80
27567;DHT22;15006;48.584;9.186;2024-02-15T08:55:09;7.90;96.90
27567;DHT22;15006;48.584;9.186;2024-02-15T08:57:36;7.90;96.00
27567;DHT22;15006;48.584;9.186;2024-02-15T09:00:04;7.90;96.70
27567;DHT22;15006;48.584;9.186;2024-02-15T09:02:40;7.90;96.40
27567;DHT22;15006;48.584;9.186;2024-02-15T09:05:06;7.90;96.10
27567;DHT22;15006;48.584;9.186;2024-02-15T09:07:32;7.90;96.10
27567;DHT22;15006;48.584;9.186;2024-02-15T09:09:59;8.00;96.00
27567;DHT22;15006;48.584;9.186;2024-02-15T09:12:25;8.00;95.70
27567;DHT22;15006;48.584;9.186;2024-02-15T09:14:51;8.00;95.60
27567;DHT22;15006;48.584;9.186;2024-02-15T09:17:17;8.10;95.70
27567;DHT22;15006;48.584;9.186;2024-02-15T09:19:43;8.10;95.50
27567;DHT22;15006;48.584;9.186;2024-02-15T09:22:09;8.10;95.20
27567;DHT22;15006;48.584;9.186;2024-02-15T09:24:36;8.20;95.30
27567;DHT22;15006;48.584;9.186;2024-02-15T09:27:02;8.30;95.20
27567;DHT22;15006;48.584;9.186;2024-02-15T09:29:29;8.40;95.20
27567;DHT22;15006;48.584;9.186;2024-02-15T09:31:58;8.40;95.20
27567;DHT22;15006;48.584;9.186;2024-02-15T09:34:27;8.50;95.40
27567;DHT22;15006;48.584;9.186;2024-02-15T09:36:53;8.70;95.30
27567;DHT22;15006;48.584;9.186;2024-02-15T09:39:20;8.80;95.10
27567;DHT22;15006;48.584;9.186;2024-02-15T09:41:46;8.90;94.40
27567;DHT22;15006;48.584;9.186;2024-02-15T09:44:11;9.00;94.00
27567;DHT22;15006;48.584;9.186;2024-02-15T09:46:43;9.10;94.00
27567;DHT22;15006;48.584;9.186;2024-02-15T09:49:12;9.20;93.20
27567;DHT22;15006;48.584;9.186;2024-02-15T09:51:38;9.20;93.70
27567;DHT22;15006;48.584;9.186;2024-02-15T09:54:06;9.30;93.50
27567;DHT22;15006;48.584;9.186;2024-02-15T09:56:35;9.40;93.10
27567;DHT22;15006;48.584;9.186;2024-02-15T09:59:01;9.50;93.00
27567;DHT22;15006;48.584;9.186;2024-02-15T10:01:31;9.60;92.70
27567;DHT22;15006;48.584;9.186;2024-02-15T10:03:58;9.60;92.70
27567;DHT22;15006;48.584;9.186;2024-02-15T10:06:25;9.70;93.10
27567;DHT22;15006;48.584;9.186;2024-02-15T10:08:52;9.80;92.60
27567;DHT22;15006;48.584;9.186;2024-02-15T10:11:19;9.90;92.70
27567;DHT22;15006;48.584;9.186;2024-02-15T10:13:46;10.00;92.80
27567;DHT22;15006;48.584;9.186;2024-02-15T10:16:19;10.20;92.80
27567;DHT22;15006;48.584;9.186;2024-02-15T10:18:50;10.30;91.30
27567;DHT22;15006;48.584;9.186;2024-02-15T10:21:24;10.40;92.30
27567;DHT22;15006;48.584;9.186;2024-02-15T10:24:05;10.60;91.10
27567;DHT22;15006;48.584;9.186;2024-02-15T10:26:33;10.70;90.90
27567;DHT22;15006;48.584;9.186;2024-02-15T10:29:08;10.90;92.00
27567;DHT22;15006;48.584;9.186;2024-02-15T10:31:39;11.00;90.70
27567;DHT22;15006;48.584;9.186;2024-02-15T10:34:07;11.20;91.50
27567;DHT22;15006;48.584;9.186;2024-02-15T10:36:34;11.30;90.90
27567;DHT22;15006;48.584;9.186;2024-02-15T10:39:17;11.50;90.50
27567;DHT22;15006;48.584;9.186;2024-02-15T10:41:52;11.60;86.90
27567;DHT22;15006;48.584;9.186;2024-02-15T10:44:21;11.80;88.20
27567;DHT22;15006;48.584;9.186;2024-02-15T10:46:52;11.90;89.10
27567;DHT22;15006;48.584;9.186;2024-02-15T10:49:23;12.10;88.10
27567;DHT22;15006;48.584;9.186;2024-02-15T10:51:52;12.20;89.50
27567;DHT22;15006;48.584;9.186;2024-02-15T10:57:09;12.60;84.90
27567;DHT22;15006;48.584;9.186;2024-02-15T10:59:38;13.00;91.00
27567;DHT22;15006;48.584;9.186;2024-02-15T11:02:28;13.50;91.40
27567;DHT22;15006;48.584;9.186;2024-02-15T11:05:02;14.00;89.70
27567;DHT22;15006;48.584;9.186;2024-02-15T11:07:31;14.80;90.90
27567;DHT22;15006;48.584;9.186;2024-02-15T11:09:58;15.40;91.10
27567;DHT22;15006;48.584;9.186;2024-02-15T11:12:26;16.10;90.90
27567;DHT22;15006;48.584;9.186;2024-02-15T11:14:54;16.70;87.60
27567;DHT22;15006;48.584;9.186;2024-02-15T11:23:03;18.70;73.30
27567;DHT22;15006;48.584;9.186;2024-02-15T11:25:38;19.20;78.90
27567;DHT22;15006;48.584;9.186;2024-02-15T11:30:51;20.30;66.80
27567;DHT22;15006;48.584;9.186;2024-02-15T11:33:27;20.80;66.40
27567;DHT22;15006;48.584;9.186;2024-02-15T11:36:08;21.10;61.70
27567;DHT22;15006;48.584;9.186;2024-02-15T11:38:36;21.30;60.90
27567;DHT22;15006;48.584;9.186;2024-02-15T11:41:06;21.50;64.20
27567;DHT22;15006;48.584;9.186;2024-02-15T11:46:27;22.00;68.10
27567;DHT22;15006;48.584;9.186;2024-02-15T11:48:58;22.40;66.30
27567;DHT22;15006;48.584;9.186;2024-02-15T11:54:08;22.80;61.20
27567;DHT22;15006;48.584;9.186;2024-02-15T11:59:13;23.20;55.60
27567;DHT22;15006;48.584;9.186;2024-02-15T12:01:57;23.20;57.10
27567;DHT22;15006;48.584;9.186;2024-02-15T12:04:43;23.30;55.70
27567;DHT22;15006;48.584;9.186;2024-02-15T12:07:32;23.30;56.10
27567;DHT22;15006;48.584;9.186;2024-02-15T12:10:18;23.20;53.20
27567;DHT22;15006;48.584;9.186;2024-02-15T12:13:03;23.30;55.90
27567;DHT22;15006;48.584;9.186;2024-02-15T12:16:01;23.30;55.80
27567;DHT22;15006;48.584;9.186;2024-02-15T12:18:46;23.40;52.20
27567;DHT22;15006;48.584;9.186;2024-02-15T12:21:24;23.50;55.80
27567;DHT22;15006;48.584;9.186;2024-02-15T12:23:52;23.60;51.20
27567;DHT22;15006;48.584;9.186;2024-02-15T12:26:22;23.70;54.00
27567;DHT22;15006;48.584;9.186;2024-02-15T12:28:52;23.70;51.00
27567;DHT22;15006;48.584;9.186;2024-02-15T12:31:22;23.70;51.90
27567;DHT22;15006;48.584;9.186;2024-02-15T12:34:02;23.60;51.70
27567;DHT22;15006;48.584;9.186;2024-02-15T12:36:35;23.60;48.80
27567;DHT22;15006;48.584;9.186;2024-02-15T12:39:06;23.60;55.00
27567;DHT22;15006;48.584;9.186;2024-02-15T12:41:48;23.60;53.30
27567;DHT22;15006;48.584;9.186;2024-02-15T12:44:18;23.60;50.50
27567;DHT22;15006;48.584;9.186;2024-02-15T12:46:57;23.60;52.30
27567;DHT22;15006;48.584;9.186;2024-02-15T12:51:52;23.60;51.90
27567;DHT22;15006;48.584;9.186;2024-02-15T12:54:23;23.50;51.40
27567;DHT22;15006;48.584;9.186;2024-02-15T12:56:50;23.50;50.00
27567;DHT22;15006;48.584;9.186;2024-02-15T12:59:19;23.40;52.00
27567;DHT22;15006;48.584;9.186;2024-02-15T13:01:46;23.40;51.70
27567;DHT22;15006;48.584;9.186;2024-02-15T13:04:25;23.30;50.50
27567;DHT22;15006;48.584;9.186;2024-02-15T13:06:51;23.20;47.80
27567;DHT22;15006;48.584;9.186;2024-02-15T13:09:17;23.10;50.40
27567;DHT22;15006;48.584;9.186;2024-02-15T13:11:43;22.90;50.30
27567;DHT22;15006;48.584;9.186;2024-02-15T13:14:12;22.80;50.20
27567;DHT22;15006;48.584;9.186;2024-02-15T13:16:39;22.70;50.00
27567;DHT22;15006;48.584;9.186;2024-02-15T13:19:05;22.50;49.50
27567;DHT22;15006;48.584;9.186;2024-02-15T13:21:33;22.40;49.60
27567;DHT22;15006;48.584;9.186;2024-02-15T13:24:00;22.30;49.50
27567;DHT22;15006;48.584;9.186;2024-02-15T13:26:31;22.20;49.70
27567;DHT22;15006;48.584;9.186;2024-02-15T13:28:58;22.00;49.90
27567;DHT22;15006;48.584;9.186;2024-02-15T13:31:24;21.90;50.40
27567;DHT22;15006;48.584;9.186;2024-02-15T13:33:50;21.80;50.50
27567;DHT22;15006;48.584;9.186;2024-02-15T13:36:16;21.60;51.00
27567;DHT22;15006;48.584;9.186;2024-02-15T13:38:42;21.60;51.00
27567;DHT22;15006;48.584;9.186;2024-02-15T13:41:08;21.50;50.30
27567;DHT22;15006;48.584;9.186;2024-02-15T13:43:34;21.40;50.40
27567;DHT22;15006;48.584;9.186;2024-02-15T13:46:00;21.30;50.40
27567;DHT22;15006;48.584;9.186;2024-02-15T13:48:30;21.20;50.10
27567;DHT22;15006;48.584;9.186;2024-02-15T13:50:57;21.00;49.00
27567;DHT22;15006;48.584;9.186;2024-02-15T13:53:23;20.90;51.60
27567;DHT22;15006;48.584;9.186;2024-02-15T13:55:50;20.60;51.10
27567;DHT22;15006;48.584;9.186;2024-02-15T13:58:18;20.40;51.00
27567;DHT22;15006;48.584;9.186;2024-02-15T14:00:44;20.20;51.20
27567;DHT22;15006;48.584;9.186;2024-02-15T14:03:11;20.00;51.00
27567;DHT22;15006;48.584;9.186;2024-02-15T14:05:37;19.80;51.10
27567;DHT22;15006;48.584;9.186;2024-02-15T14:08:05;19.60;51.90
27567;DHT22;15006;48.584;9.186;2024-02-15T14:10:34;19.40;52.40
27567;DHT22;15006;48.584;9.186;2024-02-15T14:13:04;19.30;52.50
27567;DHT22;15006;48.584;9.186;2024-02-15T14:15:35;19.10;52.80
27567;DHT22;15006;48.584;9.186;2024-02-15T14:18:08;19.00;53.10
27567;DHT22;15006;48.584;9.186;2024-02-15T14:20:44;18.90;52.80
27567;DHT22;15006;48.584;9.186;2024-02-15T14:23:13;18.70;53.90
27567;DHT22;15006;48.584;9.186;2024-02-15T14:25:42;18.60;54.10
27567;DHT22;15006;48.584;9.186;2024-02-15T14:28:10;18.50;54.00
27567;DHT22;15006;48.584;9.186;2024-02-15T14:30:36;18.40;54.30
27567;DHT22;15006;48.584;9.186;2024-02-15T14:33:21;18.30;54.90
27567;DHT22;15006;48.584;9.186;2024-02-15T14:35:49;18.20;55.20
27567;DHT22;15006;48.584;9.186;2024-02-15T14:38:15;18.10;55.00
27567;DHT22;15006;48.584;9.186;2024-02-15T14:40:45;18.10;55.20
27567;DHT22;15006;48.584;9.186;2024-02-15T14:43:16;18.00;55.50
27567;DHT22;15006;48.584;9.186;2024-02-15T14:45:43;18.00;56.10
27567;DHT22;15006;48.584;9.186;2024-02-15T14:48:09;18.00;56.20
27567;DHT22;15006;48.584;9.186;2024-02-15T14:50:36;18.00;56.10
27567;DHT22;15006;48.584;9.186;2024-02-15T14:53:03;18.10;56.60
27567;DHT22;15006;48.584;9.186;2024-02-15T14:55:29;18.10;56.60
27567;DHT22;15006;48.584;9.186;2024-02-15T14:57:57;18.20;56.70
27567;DHT22;15006;48.584;9.186;2024-02-15T15:00:23;18.30;56.40
27567;DHT22;15006;48.584;9.186;2024-02-15T15:02:50;18.30;56.40
27567;DHT22;15006;48.584;9.186;2024-02-15T15:05:16;18.30;55.80
27567;DHT22;15006;48.584;9.186;2024-02-15T15:08:01;18.30;55.70
27567;DHT22;15006;48.584;9.186;2024-02-15T15:10:46;18.40;55.50
27567;DHT22;15006;48.584;9.186;2024-02-15T15:13:32;18.30;55.50
27567;DHT22;15006;48.584;9.186;2024-02-15T15:15:59;18.30;55.10
27567;DHT22;15006;48.584;9.186;2024-02-15T15:18:26;18.20;55.10
27567;DHT22;15006;48.584;9.186;2024-02-15T15:20:53;18.20;55.20
27567;DHT22;15006;48.584;9.186;2024-02-15T15:23:19;18.10;55.80
27567;DHT22;15006;48.584;9.186;2024-02-15T15:25:44;18.00;55.10
27567;DHT22;15006;48.584;9.186;2024-02-15T15:28:11;17.80;55.10
27567;DHT22;15006;48.584;9.186;2024-02-15T15:30:39;17.60;55.00
27567;DHT22;15006;48.584;9.186;2024-02-15T15:33:15;17.50;55.10
27567;DHT22;15006;48.584;9.186;2024-02-15T15:35:41;17.30;55.20
27567;DHT22;15006;48.584;9.186;2024-02-15T15:38:07;17.10;55.40
27567;DHT22;15006;48.584;9.186;2024-02-15T15:40:33;16.90;55.60
27567;DHT22;15006;48.584;9.186;2024-02-15T15:43:00;16.70;55.80
27567;DHT22;15006;48.584;9.186;2024-02-15T15:45:26;16.50;56.10
27567;DHT22;15006;48.584;9.186;2024-02-15T15:47:52;16.30;56.40
27567;DHT22;15006;48.584;9.186;2024-02-15T15:50:18;16.20;56.50
27567;DHT22;15006;48.584;9.186;2024-02-15T15:52:45;16.00;57.50
27567;DHT22;15006;48.584;9.186;2024-02-15T15:55:11;15.80;57.10
27567;DHT22;15006;48.584;9.186;2024-02-15T15:57:38;15.60;57.60
27567;DHT22;15006;48.584;9.186;2024-02-15T16:00:10;15.50;58.10
27567;DHT22;15006;48.584;9.186;2024-02-15T16:02:39;15.20;58.40
27567;DHT22;15006;48.584;9.186;2024-02-15T16:05:06;15.10;58.80
27567;DHT22;15006;48.584;9.186;2024-02-15T16:07:33;14.90;59.20
27567;DHT22;15006;48.584;9.186;2024-02-15T16:09:58;14.70;59.70
27567;DHT22;15006;48.584;9.186;2024-02-15T16:12:25;14.50;60.00